• Join FlightAware (Why Join?)
  • Login
  • US Flag 
12:29PM EDT


 

Airport Tracker/Info


-or-


 

Live Flight TrackerFlight Track Log ✈ TYR275 ✈ 24-Apr-2013 ✈ LOWW / VIE - EDDT / TXL

Flight Track Log - Related Links

Times and Time Zones

All times are in EDT time to prevent confusion due to time zone crossing. See the TYR275 flight status page for this flight to view local times or setup timezone preferences in your user account.

Time Position Orientation Groundspeed Altitude Reporting Facility
EDT Latitude Longitude Course Direction KTS MPH feet Rate Location/Type
12:12PM 48.3852 16.3857 336° Northwest  Level Estimated
12:13PM 48.4767 16.3239 336° Northwest  Level Estimated
12:14PM 48.5682 16.2619 336° Northwest  Level Estimated
12:15PM 48.6597 16.1997 336° Northwest  Level Estimated
12:16PM 48.7512 16.1372 336° Northwest  Level Estimated
12:17PM 48.8426 16.0745 336° Northwest  Level Estimated
12:18PM 48.9340 16.0116 336° Northwest  Level Estimated
12:19PM 49.0254 15.9485 336° Northwest  Level Estimated
12:20PM 49.1167 15.8851 336° Northwest  Level Estimated
12:21PM 49.2080 15.8215 336° Northwest  Level Estimated
12:22PM 49.2992 15.7576 335° Northwest  Level Estimated
12:23PM 49.3904 15.6935 335° Northwest  Level Estimated
12:24PM 49.4816 15.6292 335° Northwest  Level Estimated
12:25PM 49.5728 15.5647 335° Northwest  Level Estimated
12:26PM 49.6639 15.4999 335° Northwest  Level Estimated
12:27PM 49.7550 15.4348 335° Northwest  Level Estimated
12:28PM 49.8460 15.3695 335° Northwest  Level Estimated
12:29PM 49.9370 15.3040 335° Northwest  Level Estimated
12:30PM 50.0280 15.2382 335° Northwest  Level Estimated
12:31PM 50.1189 15.1721 335° Northwest  Level Estimated
12:32PM 50.2098 15.1059 335° Northwest  Level Estimated
12:33PM 50.3006 15.0393 335° Northwest  Level Estimated
12:34PM 50.3914 14.9725 335° Northwest  Level Estimated
12:35PM 50.4822 14.9055 335° Northwest  Level Estimated
12:36PM 50.5729 14.8382 335° Northwest  Level Estimated
12:37PM 50.6637 14.7706 335° Northwest  Level Estimated
12:38PM 50.7543 14.7028 335° Northwest  Level Estimated
12:39PM 50.8449 14.6347 335° Northwest  Level Estimated
12:40PM 50.9355 14.5663 335° Northwest  Level Estimated
12:41PM 51.0261 14.4977 335° Northwest  Level Estimated
12:42PM 51.1166 14.4288 334° Northwest  Level Estimated
12:43PM 51.2070 14.3596 334° Northwest  Level Estimated
12:44PM 51.2974 14.2902 334° Northwest  Level Estimated
12:45PM 51.3878 14.2205 334° Northwest  Level Estimated
12:46PM 51.4781 14.1505 334° Northwest  Level Estimated
12:47PM 51.5684 14.0802 334° Northwest  Level Estimated
12:48PM 51.6587 14.0097 334° Northwest  Level Estimated
12:49PM 51.7489 13.9389 334° Northwest  Level Estimated
12:50PM 51.8390 13.8678 334° Northwest  Level Estimated
12:51PM 51.9292 13.7964 334° Northwest  Level Estimated
12:52PM 52.0192 13.7247 334° Northwest  Level Estimated
12:53PM 52.1093 13.6527 334° Northwest  Level Estimated
12:54PM 52.1993 13.5805 334° Northwest  Level Estimated
12:55PM 52.2892 13.5079 334° Northwest  Level Estimated
12:56PM 52.3791 13.4351 334° Northwest  Level Estimated
12:57PM 52.4690 13.3619 334° Northwest  Level Estimated
12:58PM 52.5588 13.2885 334° Northwest  Level Estimated
12:59PM 52.5597 13.2877 334° Northwest  Level Estimated
01:00PM 52.5597 13.2877 171° South  Level Estimated
01:01PM 52.5597 13.2877 171° South  Level Estimated
01:02PM 52.5597 13.2877 171° South  Level Estimated
01:03PM 52.5597 13.2877 171° South  Level Estimated
01:04PM 52.5597 13.2877 171° South  Level Estimated
01:05PM 52.5597 13.2877 171° South  Level Estimated
01:06PM 52.5597 13.2877 171° South  Level Estimated
01:07PM 52.5597 13.2877 171° South  Level Estimated
01:08PM 52.5597 13.2877 171° South  Level Estimated
01:09PM 52.5597 13.2877 171° South  Level Estimated
01:10PM 52.5597 13.2877 171° South  Level Estimated
01:11PM 52.5597 13.2877 171° South  Level Estimated